PWSweather.com
Personal Weather Stations
Station Observations
IHTIMAN1
Neighbourhood 1, IhtimanBG 2050

Neighbourhood 1IhtimanBG 2050

Lat: 42.436852, Lon: 23.817921

Elevation: 2066

Station Type: Oregon Scientific WMR968

http://ihtiman-meteo.com

Latest ConditionsUpdated 1:19:57 PM GMT+02:02 Sunday, Dec 15, 2019
Currently Today's Max Today's Min Today's Average
Temperature 56.0°F13.3°C 56.1°F13.4°C 35.8°F2.1°C 43.5°F6.4°C
Dew Point 40.1°F4.5°C 44.6°F7.0°C 35.8°F2.1°C 40.9°F4.9°C
Winds 3.5 mph ESE5.6 kmh ESE 6.9 mph -11.1 kmh - - 1.7 mph 2.7 kmh
Wind Gusts 3.5 mph5.6 kmh 9.2 mph14.8 kmh - -
Humidity 55% 100% 55% 92%
Pressure 30.09 in1019.0 mb 30.09 in1019.0 mb 29.82 in1009.8 mb -
Hour Temp Dew Point Humidity Winds Wind Gusts Pressure Precip Precip Rate Daily Precip Total
01:19 PM 56.0°F13.3°C 40.1°F4.5°C 55% 3.5 mph ESE5.6 kmh ESE 3.5 mph5.6 kmh 30.09 in1019.0 mb - 0.00 in0.0 mm 0.00 in0.0 mm
01:09 PM 55.8°F13.2°C 40.8°F4.9°C 57% 3.5 mph SSE5.6 kmh SSE 5.8 mph9.3 kmh 30.09 in1019.0 mb - 0.00 in0.0 mm 0.00 in0.0 mm
12:59 PM 56.1°F13.4°C 40.6°F4.8°C 56% 3.5 mph S5.6 kmh S 4.6 mph7.4 kmh 30.09 in1019.0 mb - 0.00 in0.0 mm 0.00 in0.0 mm
12:49 PM 56.0°F13.3°C 40.5°F4.7°C 56% 3.5 mph S5.6 kmh S 3.5 mph5.6 kmh 30.09 in1019.0 mb - 0.00 in0.0 mm 0.00 in0.0 mm
12:39 PM 55.7°F13.2°C 40.7°F4.8°C 57% 2.3 mph NW3.7 kmh NW 3.5 mph5.6 kmh 30.09 in1019.0 mb - 0.00 in0.0 mm 0.00 in0.0 mm
12:29 PM 54.1°F12.3°C 40.6°F4.8°C 60% 1.2 mph NW1.9 kmh NW 3.5 mph5.6 kmh 30.09 in1019.0 mb - 0.00 in0.0 mm 0.00 in0.0 mm
12:19 PM 53.7°F12.1°C 41.8°F5.4°C 64% Calm Calm -- 30.09 in1019.0 mb - 0.00 in0.0 mm 0.00 in0.0 mm
12:09 PM 53.1°F11.7°C 42.4°F5.8°C 67% Calm Calm -- 30.09 in1019.0 mb - 0.00 in0.0 mm 0.00 in0.0 mm
11:59 AM 51.6°F10.9°C 41.7°F5.4°C 69% 1.2 mph NW1.9 kmh NW 3.5 mph5.6 kmh 30.09 in1019.0 mb - 0.00 in0.0 mm 0.00 in0.0 mm
11:49 AM 51.6°F10.9°C 42.2°F5.7°C 70% 2.3 mph NW3.7 kmh NW 3.5 mph5.6 kmh 30.09 in1019.0 mb - 0.00 in0.0 mm 0.00 in0.0 mm
11:39 AM 51.4°F10.8°C 42.7°F5.9°C 72% 2.3 mph NW3.7 kmh NW 3.5 mph5.6 kmh 30.09 in1019.0 mb - 0.00 in0.0 mm 0.00 in0.0 mm
11:29 AM 49.6°F9.8°C 41.3°F5.2°C 73% 1.2 mph NW1.9 kmh NW 3.5 mph5.6 kmh 30.09 in1019.0 mb - 0.00 in0.0 mm 0.00 in0.0 mm
11:19 AM 48.7°F9.3°C 41.2°F5.1°C 75% 2.3 mph NW3.7 kmh NW 3.5 mph5.6 kmh 30.09 in1019.0 mb - 0.00 in0.0 mm 0.00 in0.0 mm
11:09 AM 47.7°F8.7°C 40.8°F4.9°C 77% 2.3 mph NW3.7 kmh NW 3.5 mph5.6 kmh 30.09 in1019.0 mb - 0.00 in0.0 mm 0.00 in0.0 mm
10:59 AM 47.5°F8.6°C 41.6°F5.3°C 80% 2.3 mph NW3.7 kmh NW 3.5 mph5.6 kmh 30.09 in1019.0 mb - 0.00 in0.0 mm 0.00 in0.0 mm
10:49 AM 46.6°F8.1°C 41.1°F5.1°C 81% 2.3 mph NW3.7 kmh NW 4.6 mph7.4 kmh 30.09 in1019.0 mb - 0.00 in0.0 mm 0.00 in0.0 mm
10:39 AM 46.2°F7.9°C 41.3°F5.2°C 83% 1.2 mph NW1.9 kmh NW 3.5 mph5.6 kmh 30.09 in1019.0 mb - 0.00 in0.0 mm 0.00 in0.0 mm
10:29 AM 45.3°F7.4°C 41.0°F5.0°C 85% Calm Calm -- 30.09 in1019.0 mb - 0.00 in0.0 mm 0.00 in0.0 mm
10:19 AM 44.7°F7.1°C 41.4°F5.2°C 88% Calm Calm -- 30.09 in1019.0 mb - 0.00 in0.0 mm 0.00 in0.0 mm
10:09 AM 43.9°F6.6°C 42.0°F5.6°C 93% Calm Calm -- 30.09 in1019.0 mb - 0.00 in0.0 mm 0.00 in0.0 mm
09:59 AM 42.3°F5.7°C 41.5°F5.3°C 97% Calm Calm -- 30.09 in1019.0 mb - 0.00 in0.0 mm 0.00 in0.0 mm
09:49 AM 41.5°F5.3°C 41.5°F5.3°C 100% Calm Calm -- 30.06 in1017.9 mb - 0.00 in0.0 mm 0.00 in0.0 mm
09:39 AM 40.8°F4.9°C 40.8°F4.9°C 100% Calm Calm -- 30.06 in1017.9 mb - 0.00 in0.0 mm 0.00 in0.0 mm
09:29 AM 40.8°F4.9°C 40.8°F4.9°C 100% Calm Calm -- 30.06 in1017.9 mb - 0.00 in0.0 mm 0.00 in0.0 mm
09:19 AM 40.3°F4.6°C 40.3°F4.6°C 100% Calm Calm -- 30.06 in1017.9 mb - 0.00 in0.0 mm 0.00 in0.0 mm
09:09 AM 39.2°F4.0°C 39.2°F4.0°C 100% Calm Calm -- 30.06 in1017.9 mb - 0.00 in0.0 mm 0.00 in0.0 mm
08:59 AM 37.8°F3.2°C 37.8°F3.2°C 100% Calm Calm -- 30.06 in1017.9 mb - 0.00 in0.0 mm 0.00 in0.0 mm
08:49 AM 36.9°F2.7°C 36.9°F2.7°C 100% Calm Calm -- 30.06 in1017.9 mb - 0.00 in0.0 mm 0.00 in0.0 mm
08:39 AM 37.0°F2.8°C 37.0°F2.8°C 100% Calm Calm -- 30.06 in1017.9 mb - 0.00 in0.0 mm 0.00 in0.0 mm
08:29 AM 36.4°F2.4°C 36.4°F2.4°C 100% Calm Calm -- 30.06 in1017.9 mb - 0.00 in0.0 mm 0.00 in0.0 mm
08:19 AM 36.0°F2.2°C 36.0°F2.2°C 100% Calm Calm -- 30.06 in1017.9 mb - 0.00 in0.0 mm 0.00 in0.0 mm
08:09 AM 35.8°F2.1°C 35.8°F2.1°C 100% Calm Calm -- 30.06 in1017.9 mb - 0.00 in0.0 mm 0.00 in0.0 mm
07:59 AM 36.0°F2.2°C 36.0°F2.2°C 100% Calm Calm -- 30.06 in1017.9 mb - 0.00 in0.0 mm 0.00 in0.0 mm
07:49 AM 36.0°F2.2°C 36.0°F2.2°C 100% Calm Calm -- 30.03 in1016.9 mb - 0.00 in0.0 mm 0.00 in0.0 mm
07:39 AM 36.4°F2.4°C 36.4°F2.4°C 100% Calm Calm -- 30.03 in1016.9 mb - 0.00 in0.0 mm 0.00 in0.0 mm
07:29 AM 36.7°F2.6°C 36.7°F2.6°C 100% Calm Calm -- 30.03 in1016.9 mb - 0.00 in0.0 mm 0.00 in0.0 mm
07:19 AM 36.9°F2.7°C 36.9°F2.7°C 100% Calm Calm -- 30.03 in1016.9 mb - 0.00 in0.0 mm 0.00 in0.0 mm
07:09 AM 37.4°F3.0°C 37.4°F3.0°C 100% Calm Calm -- 30.00 in1015.9 mb - 0.00 in0.0 mm 0.00 in0.0 mm
06:59 AM 37.6°F3.1°C 37.6°F3.1°C 100% Calm Calm -- 30.00 in1015.9 mb - 0.00 in0.0 mm 0.00 in0.0 mm
06:49 AM 37.9°F3.3°C 37.9°F3.3°C 100% Calm Calm -- 30.00 in1015.9 mb - 0.00 in0.0 mm 0.00 in0.0 mm
06:39 AM 38.3°F3.5°C 38.3°F3.5°C 100% Calm Calm -- 29.97 in1014.9 mb - 0.00 in0.0 mm 0.00 in0.0 mm
06:29 AM 38.3°F3.5°C 38.3°F3.5°C 100% Calm Calm 3.5 mph5.6 kmh 29.97 in1014.9 mb - 0.00 in0.0 mm 0.00 in0.0 mm
06:19 AM 38.5°F3.6°C 38.5°F3.6°C 100% Calm Calm 3.5 mph5.6 kmh 29.97 in1014.9 mb - 0.00 in0.0 mm 0.00 in0.0 mm
06:09 AM 38.8°F3.8°C 38.8°F3.8°C 100% Calm Calm -- 29.97 in1014.9 mb - 0.00 in0.0 mm 0.00 in0.0 mm
05:59 AM 39.9°F4.4°C 39.9°F4.4°C 100% 3.5 mph NNW5.6 kmh NNW 3.5 mph5.6 kmh 29.97 in1014.9 mb - 0.00 in0.0 mm 0.00 in0.0 mm
05:49 AM 40.5°F4.7°C 40.5°F4.7°C 100% 5.8 mph N9.3 kmh N 5.8 mph9.3 kmh 29.94 in1013.9 mb - 0.00 in0.0 mm 0.00 in0.0 mm
05:39 AM 39.9°F4.4°C 39.9°F4.4°C 100% 4.6 mph N7.4 kmh N 5.8 mph9.3 kmh 29.94 in1013.9 mb - 0.00 in0.0 mm 0.00 in0.0 mm
05:29 AM 39.7°F4.3°C 39.7°F4.3°C 100% 3.5 mph N5.6 kmh N 4.6 mph7.4 kmh 29.94 in1013.9 mb - 0.00 in0.0 mm 0.00 in0.0 mm
05:19 AM 39.8°F4.3°C 39.0°F3.9°C 97% 3.5 mph N5.6 kmh N 5.8 mph9.3 kmh 29.94 in1013.9 mb - 0.00 in0.0 mm 0.00 in0.0 mm
05:09 AM 39.9°F4.4°C 38.9°F3.8°C 96% Calm Calm -- 29.91 in1012.9 mb - 0.00 in0.0 mm 0.00 in0.0 mm
04:59 AM 40.3°F4.6°C 39.0°F3.9°C 95% 3.5 mph N5.6 kmh N 4.6 mph7.4 kmh 29.91 in1012.9 mb - 0.00 in0.0 mm 0.00 in0.0 mm
04:49 AM 40.4°F4.7°C 38.8°F3.8°C 94% 2.3 mph NE3.7 kmh NE 3.5 mph5.6 kmh 29.94 in1013.9 mb - 0.00 in0.0 mm 0.00 in0.0 mm
04:39 AM 41.2°F5.1°C 39.1°F3.9°C 92% Calm Calm 2.3 mph3.7 kmh 29.94 in1013.9 mb - 0.00 in0.0 mm 0.00 in0.0 mm
04:29 AM 42.4°F5.8°C 40.0°F4.4°C 91% 2.3 mph N3.7 kmh N 3.5 mph5.6 kmh 29.94 in1013.9 mb - 0.00 in0.0 mm 0.00 in0.0 mm
04:19 AM 43.3°F6.3°C 40.9°F4.9°C 91% 4.6 mph NNW7.4 kmh NNW 5.8 mph9.3 kmh 29.94 in1013.9 mb - 0.00 in0.0 mm 0.00 in0.0 mm
04:09 AM 43.7°F6.5°C 41.5°F5.3°C 92% 3.5 mph N5.6 kmh N 5.8 mph9.3 kmh 29.91 in1012.9 mb - 0.00 in0.0 mm 0.00 in0.0 mm
03:59 AM 43.8°F6.6°C 41.9°F5.5°C 93% 6.9 mph NNW11.1 kmh NNW 6.9 mph11.1 kmh 29.91 in1012.9 mb - 0.00 in0.0 mm 0.00 in0.0 mm
03:49 AM 44.2°F6.8°C 42.8°F6.0°C 95% 3.5 mph N5.6 kmh N 5.8 mph9.3 kmh 29.91 in1012.9 mb - 0.00 in0.0 mm 0.00 in0.0 mm
03:39 AM 44.4°F6.9°C 43.6°F6.4°C 97% 2.3 mph NNW3.7 kmh NNW 5.8 mph9.3 kmh 29.91 in1012.9 mb - 0.00 in0.0 mm 0.00 in0.0 mm
03:29 AM 44.6°F7.0°C 44.1°F6.7°C 98% 1.2 mph N1.9 kmh N 3.5 mph5.6 kmh 29.91 in1012.9 mb - 0.00 in0.0 mm 0.00 in0.0 mm
03:19 AM 44.4°F6.9°C 44.4°F6.9°C 100% 3.5 mph N5.6 kmh N 4.6 mph7.4 kmh 29.91 in1012.9 mb - 0.00 in0.0 mm 0.00 in0.0 mm
03:09 AM 44.2°F6.8°C 44.2°F6.8°C 100% 3.5 mph N5.6 kmh N 5.8 mph9.3 kmh 29.88 in1011.9 mb - 0.00 in0.0 mm 0.00 in0.0 mm
02:59 AM 44.1°F6.7°C 44.1°F6.7°C 100% 3.5 mph N5.6 kmh N 3.5 mph5.6 kmh 29.88 in1011.9 mb - 0.00 in0.0 mm 0.00 in0.0 mm
02:49 AM 43.9°F6.6°C 43.9°F6.6°C 100% 3.5 mph NNE5.6 kmh NNE 3.5 mph5.6 kmh 29.88 in1011.9 mb - 0.00 in0.0 mm 0.00 in0.0 mm
02:39 AM 44.1°F6.7°C 44.1°F6.7°C 100% 2.3 mph N3.7 kmh N 3.5 mph5.6 kmh 29.88 in1011.9 mb - 0.00 in0.0 mm 0.00 in0.0 mm
02:29 AM 44.2°F6.8°C 44.2°F6.8°C 100% 3.5 mph N5.6 kmh N 4.6 mph7.4 kmh 29.88 in1011.9 mb - 0.00 in0.0 mm 0.00 in0.0 mm
02:19 AM 44.4°F6.9°C 44.4°F6.9°C 100% 3.5 mph N5.6 kmh N 5.8 mph9.3 kmh 29.88 in1011.9 mb - 0.00 in0.0 mm 0.00 in0.0 mm
02:09 AM 44.6°F7.0°C 44.6°F7.0°C 100% 3.5 mph N5.6 kmh N 5.8 mph9.3 kmh 29.86 in1011.2 mb - 0.00 in0.0 mm 0.00 in0.0 mm
01:59 AM 44.6°F7.0°C 44.6°F7.0°C 100% 3.5 mph N5.6 kmh N 5.8 mph9.3 kmh 29.86 in1011.2 mb - 0.00 in0.0 mm 0.00 in0.0 mm
01:49 AM 44.6°F7.0°C 44.6°F7.0°C 100% Calm Calm 3.5 mph5.6 kmh 29.86 in1011.2 mb - 0.00 in0.0 mm 0.00 in0.0 mm
01:39 AM 44.6°F7.0°C 44.6°F7.0°C 100% 2.3 mph N3.7 kmh N 5.8 mph9.3 kmh 29.86 in1011.2 mb - 0.00 in0.0 mm 0.00 in0.0 mm
01:29 AM 44.4°F6.9°C 44.4°F6.9°C 100% 1.2 mph N1.9 kmh N 4.6 mph7.4 kmh 29.86 in1011.2 mb - 0.00 in0.0 mm 0.00 in0.0 mm
01:19 AM 44.4°F6.9°C 44.4°F6.9°C 100% 3.5 mph N5.6 kmh N 3.5 mph5.6 kmh 29.86 in1011.2 mb - 0.00 in0.0 mm 0.00 in0.0 mm
01:09 AM 44.2°F6.8°C 44.2°F6.8°C 100% 2.3 mph N3.7 kmh N 4.6 mph7.4 kmh 29.86 in1011.2 mb - 0.00 in0.0 mm 0.00 in0.0 mm
12:59 AM 43.9°F6.6°C 43.9°F6.6°C 100% 3.5 mph NNW5.6 kmh NNW 9.2 mph14.8 kmh 29.86 in1011.2 mb - 0.00 in0.0 mm 0.00 in0.0 mm
12:49 AM 43.9°F6.6°C 43.9°F6.6°C 100% Calm Calm -- 29.82 in1009.8 mb - 0.00 in0.0 mm 0.00 in0.0 mm
12:39 AM 44.1°F6.7°C 44.1°F6.7°C 100% 2.3 mph NNW3.7 kmh NNW 3.5 mph5.6 kmh 29.82 in1009.8 mb - 0.00 in0.0 mm 0.00 in0.0 mm
12:29 AM 44.1°F6.7°C 44.1°F6.7°C 100% Calm Calm -- 29.82 in1009.8 mb - 0.00 in0.0 mm 0.00 in0.0 mm
12:19 AM 43.7°F6.5°C 43.7°F6.5°C 100% 2.3 mph N3.7 kmh N 3.5 mph5.6 kmh 29.82 in1009.8 mb - 0.00 in0.0 mm 0.00 in0.0 mm
12:09 AM 43.7°F6.5°C 43.7°F6.5°C 100% 3.5 mph NNW5.6 kmh NNW 5.8 mph9.3 kmh 29.82 in1009.8 mb - 0.00 in0.0 mm 0.00 in0.0 mm